createdAt,value
2023-04-02T00:01:06.281Z,8.32
2023-04-02T00:04:22.272Z,8.37
2023-04-02T00:07:15.360Z,8.41
2023-04-02T00:09:43.470Z,8.43
2023-04-02T00:12:16.928Z,8.43
2023-04-02T00:14:49.452Z,8.42
2023-04-02T00:17:18.040Z,8.40
2023-04-02T00:19:53.075Z,8.37
2023-04-02T00:22:27.085Z,8.35
2023-04-02T00:24:57.207Z,8.33
2023-04-02T00:27:25.182Z,8.31
2023-04-02T00:29:56.986Z,8.29
2023-04-02T00:32:28.354Z,8.29
2023-04-02T00:34:57.734Z,8.28
2023-04-02T00:37:38.610Z,8.28
2023-04-02T00:40:19.182Z,8.29
2023-04-02T00:42:49.416Z,8.32
2023-04-02T00:45:24.906Z,8.33
2023-04-02T00:47:53.116Z,8.37
2023-04-02T00:50:29.997Z,8.41
2023-04-02T00:53:00.126Z,8.46
2023-04-02T00:55:36.615Z,8.48
2023-04-02T00:58:19.218Z,8.48
2023-04-02T01:00:51.445Z,8.47
2023-04-02T01:03:30.023Z,8.45
2023-04-02T01:06:10.925Z,8.41
2023-04-02T01:09:03.849Z,8.34
2023-04-02T01:11:53.814Z,8.28
2023-04-02T01:14:43.242Z,8.22
2023-04-02T01:17:28.371Z,8.16
2023-04-02T01:20:25.422Z,8.11
2023-04-02T01:23:05.885Z,8.06
2023-04-02T01:25:58.766Z,8.01
2023-04-02T01:28:35.457Z,7.98
2023-04-02T01:31:04.109Z,7.98
2023-04-02T01:33:35.346Z,7.98
2023-04-02T01:36:15.598Z,7.98
2023-04-02T01:38:55.005Z,7.99
2023-04-02T01:41:51.655Z,8.00
2023-04-02T01:44:32.296Z,7.97
2023-04-02T01:47:04.013Z,7.95
2023-04-02T01:49:32.181Z,7.92
2023-04-02T01:52:01.191Z,7.89
2023-04-02T01:54:41.433Z,7.87
2023-04-02T01:57:09.987Z,7.84
2023-04-02T01:59:37.991Z,7.83
2023-04-02T02:02:17.910Z,7.81
2023-04-02T02:04:45.996Z,7.80
2023-04-02T02:07:18.466Z,7.78
2023-04-02T02:09:49.829Z,7.77
2023-04-02T02:12:18.119Z,7.77
2023-04-02T02:14:48.055Z,7.78
2023-04-02T02:17:21.452Z,7.82
2023-04-02T02:19:55.308Z,7.86
2023-04-02T02:22:32.377Z,7.91
2023-04-02T02:25:05.252Z,7.96
2023-04-02T02:27:49.733Z,8.02
2023-04-02T02:30:25.018Z,8.08
2023-04-02T02:33:05.042Z,8.12
2023-04-02T02:35:56.655Z,8.14
2023-04-02T02:38:41.120Z,8.12
2023-04-02T02:41:28.870Z,8.08
2023-04-02T02:44:04.538Z,8.03
2023-04-02T02:46:33.900Z,7.98
2023-04-02T02:49:04.656Z,7.95
2023-04-02T02:51:47.195Z,7.91
2023-04-02T02:54:19.739Z,7.87
2023-04-02T02:56:57.154Z,7.84
2023-04-02T02:59:26.281Z,7.80
2023-04-02T03:01:54.773Z,7.78
2023-04-02T03:04:24.344Z,7.76
2023-04-02T03:06:56.923Z,7.78
2023-04-02T03:09:45.729Z,7.80
2023-04-02T03:12:35.052Z,7.83
2023-04-02T03:15:19.615Z,7.84
2023-04-02T03:17:56.134Z,7.86
2023-04-02T03:20:35.607Z,7.88
2023-04-02T03:23:27.858Z,7.88
2023-04-02T03:26:05.457Z,7.88
2023-04-02T03:28:39.671Z,7.86
2023-04-02T03:31:16.709Z,7.85
2023-04-02T03:33:51.412Z,7.84
2023-04-02T03:36:30.368Z,7.82
2023-04-02T03:39:14.976Z,7.80
2023-04-02T03:41:48.472Z,7.78
2023-04-02T03:44:27.028Z,7.78
2023-04-02T03:47:01.462Z,7.79
2023-04-02T03:49:43.326Z,7.80
2023-04-02T03:52:15.245Z,7.82
2023-04-02T03:54:53.737Z,7.83
2023-04-02T03:57:36.900Z,7.85
2023-04-02T04:00:17.339Z,7.85
2023-04-02T04:02:57.410Z,7.84
2023-04-02T04:05:32.017Z,7.82
2023-04-02T04:08:06.887Z,7.78
2023-04-02T04:10:35.333Z,7.76
2023-04-02T04:13:11.341Z,7.73
2023-04-02T04:15:53.766Z,7.71
2023-04-02T04:18:34.962Z,7.68
2023-04-02T04:21:42.653Z,7.67
2023-04-02T04:24:22.776Z,7.65
2023-04-02T04:27:03.638Z,7.65
2023-04-02T04:29:55.866Z,7.64
2023-04-02T04:32:33.851Z,7.64
2023-04-02T04:35:26.712Z,7.65
2023-04-02T04:38:07.646Z,7.67
2023-04-02T04:40:42.232Z,7.72
2023-04-02T04:43:22.830Z,7.76
2023-04-02T04:45:58.553Z,7.82
2023-04-02T04:48:35.302Z,7.89
2023-04-02T04:51:16.101Z,7.95
2023-04-02T04:53:48.507Z,8.00
2023-04-02T04:56:21.455Z,8.06
2023-04-02T04:59:02.469Z,8.10
2023-04-02T05:01:40.722Z,8.13
2023-04-02T05:04:41.336Z,8.17
2023-04-02T05:07:28.031Z,8.19
2023-04-02T05:10:17.231Z,8.21
2023-04-02T05:12:59.562Z,8.25
2023-04-02T05:15:36.409Z,8.28
2023-04-02T05:18:34.299Z,8.32
2023-04-02T05:21:07.958Z,8.33
2023-04-02T05:23:47.651Z,8.34
2023-04-02T05:26:22.031Z,8.36
2023-04-02T05:29:18.458Z,8.38
2023-04-02T05:32:01.615Z,8.43
2023-04-02T05:34:35.318Z,8.47
2023-04-02T05:37:07.090Z,8.53
2023-04-02T05:39:44.843Z,8.61
2023-04-02T05:42:21.324Z,8.69
2023-04-02T05:45:27.070Z,8.77
2023-04-02T05:48:01.725Z,8.87
2023-04-02T05:50:40.535Z,8.94
2023-04-02T05:53:21.887Z,8.98
2023-04-02T05:56:06.268Z,9.03
2023-04-02T05:58:44.821Z,9.05
2023-04-02T06:01:51.096Z,9.09
2023-04-02T06:04:35.515Z,9.16
2023-04-02T06:07:13.840Z,9.21
2023-04-02T06:09:56.273Z,9.25
2023-04-02T06:12:42.055Z,9.31
2023-04-02T06:15:16.134Z,9.37
2023-04-02T06:17:53.556Z,9.43
2023-04-02T06:20:21.465Z,9.49
2023-04-02T06:22:55.899Z,9.51
2023-04-02T06:25:32.551Z,9.56
2023-04-02T06:28:06.170Z,9.61
2023-04-02T06:30:39.226Z,9.65
2023-04-02T06:33:11.506Z,9.71
2023-04-02T06:35:46.753Z,9.75
2023-04-02T06:38:25.508Z,9.80
2023-04-02T06:40:58.944Z,9.84
2023-04-02T06:43:43.414Z,9.85
2023-04-02T06:46:28.937Z,9.86
2023-04-02T06:49:13.647Z,9.88
2023-04-02T06:51:44.916Z,9.90
2023-04-02T06:54:16.141Z,9.95
2023-04-02T06:56:50.740Z,10.02
2023-04-02T06:59:26.492Z,10.08
2023-04-02T07:02:03.740Z,10.14
2023-04-02T07:04:33.343Z,10.26
2023-04-02T07:07:02.111Z,10.35
2023-04-02T07:09:33.799Z,10.48
2023-04-02T07:12:11.562Z,10.60
2023-04-02T07:14:39.873Z,10.71
2023-04-02T07:17:20.023Z,10.78
2023-04-02T07:19:50.079Z,10.88
2023-04-02T07:22:22.141Z,10.99
2023-04-02T07:24:54.314Z,11.10
2023-04-02T07:27:22.299Z,11.12
2023-04-02T07:29:50.457Z,11.17
2023-04-02T07:32:19.605Z,11.22
2023-04-02T07:34:48.944Z,11.31
2023-04-02T07:37:17.131Z,11.39
2023-04-02T07:39:45.302Z,11.48
2023-04-02T07:42:13.587Z,11.55
2023-04-02T07:44:42.377Z,11.61
2023-04-02T07:47:17.077Z,11.63
2023-04-02T07:49:45.424Z,11.65
2023-04-02T07:52:13.432Z,11.80
2023-04-02T07:54:45.232Z,11.90
2023-04-02T07:57:13.557Z,11.98
2023-04-02T07:59:41.656Z,12.08
2023-04-02T08:02:27.511Z,12.03
2023-04-02T08:05:28.325Z,12.00
2023-04-02T08:08:07.100Z,11.88
2023-04-02T08:11:17.514Z,11.92
2023-04-02T08:14:30.877Z,11.95
2023-04-02T08:18:07.536Z,11.92
2023-04-02T08:21:25.023Z,11.63
2023-04-02T08:24:41.541Z,11.71
2023-04-02T08:27:52.005Z,11.73
2023-04-02T08:30:58.217Z,11.77
2023-04-02T08:34:39.251Z,11.79
2023-04-02T08:38:30.572Z,11.80
2023-04-02T08:41:28.679Z,11.92
2023-04-02T08:44:41.008Z,11.96
2023-04-02T08:47:51.106Z,11.89
2023-04-02T08:51:01.613Z,11.77
2023-04-02T08:54:01.756Z,11.86
2023-04-02T08:57:30.279Z,11.90
2023-04-02T09:00:57.222Z,11.91
2023-04-02T09:03:49.372Z,12.00
2023-04-02T09:07:17.653Z,12.07
2023-04-02T09:10:41.094Z,12.12
2023-04-02T09:14:11.740Z,12.07
2023-04-02T09:16:54.701Z,12.03
2023-04-02T09:19:35.213Z,12.00
2023-04-02T09:23:00.293Z,11.95
2023-04-02T09:26:04.167Z,12.01
2023-04-02T09:29:30.272Z,12.07
2023-04-02T09:33:04.245Z,12.13
2023-04-02T09:36:34.243Z,12.24
2023-04-02T09:40:04.365Z,12.31
2023-04-02T09:43:19.699Z,12.44
2023-04-02T09:46:34.276Z,12.55
2023-04-02T09:49:55.232Z,12.58
2023-04-02T09:53:45.025Z,12.50
2023-04-02T09:56:55.811Z,12.75
2023-04-02T09:59:47.543Z,12.96
2023-04-02T10:02:48.672Z,12.92
2023-04-02T10:05:50.252Z,13.10
2023-04-02T10:09:46.272Z,13.09
2023-04-02T10:13:09.417Z,12.71
2023-04-02T10:16:57.360Z,12.86
2023-04-02T10:19:56.705Z,12.78
2023-04-02T10:23:06.586Z,12.89
2023-04-02T10:25:58.310Z,13.01
2023-04-02T10:29:33.294Z,13.01
2023-04-02T10:33:08.274Z,13.08
2023-04-02T10:36:37.303Z,13.23
2023-04-02T10:43:36.963Z,13.34
2023-04-02T10:47:38.153Z,13.55
2023-04-02T10:59:08.229Z,13.21
2023-04-02T11:02:28.585Z,13.32
2023-04-02T11:05:29.228Z,13.42
2023-04-02T11:08:42.291Z,13.39
2023-04-02T11:12:08.286Z,13.42
2023-04-02T11:15:51.346Z,13.80
2023-04-02T11:19:16.199Z,14.05
2023-04-02T11:22:55.213Z,14.22
2023-04-02T11:25:56.242Z,14.32
2023-04-02T11:29:27.583Z,14.19
2023-04-02T11:32:27.143Z,14.16
2023-04-02T11:35:06.708Z,14.41
2023-04-02T11:37:41.117Z,14.03
2023-04-02T11:40:41.998Z,13.92
2023-04-02T11:43:41.929Z,13.98
2023-04-02T11:46:37.149Z,13.87
2023-04-02T11:49:42.432Z,13.56
2023-04-02T11:52:24.749Z,13.28
2023-04-02T11:55:06.564Z,13.30
2023-04-02T11:57:51.266Z,13.38
2023-04-02T12:00:33.507Z,13.20
2023-04-02T12:03:25.693Z,13.08
2023-04-02T12:06:33.273Z,13.14
2023-04-02T12:09:22.558Z,13.06
2023-04-02T12:11:53.999Z,13.13
2023-04-02T12:14:53.890Z,13.18
2023-04-02T12:17:31.557Z,13.26
2023-04-02T12:20:08.490Z,13.14
2023-04-02T12:22:40.570Z,13.19
2023-04-02T12:25:31.765Z,13.41
2023-04-02T12:28:18.602Z,13.41
2023-04-02T12:30:48.720Z,13.50
2023-04-02T12:33:30.627Z,13.38
2023-04-02T12:36:01.431Z,13.37
2023-04-02T12:38:34.435Z,13.19
2023-04-02T12:41:05.582Z,13.22
2023-04-02T12:43:37.690Z,13.31
2023-04-02T12:46:10.012Z,13.24
2023-04-02T12:48:39.728Z,13.13
2023-04-02T12:51:11.170Z,13.12
2023-04-02T12:53:42.196Z,13.18
2023-04-02T12:56:21.680Z,13.06
2023-04-02T12:58:56.624Z,13.05
2023-04-02T13:01:28.492Z,13.10
2023-04-02T13:04:08.444Z,13.12
2023-04-02T13:06:37.582Z,13.08
2023-04-02T13:09:28.731Z,13.05
2023-04-02T13:11:57.630Z,12.91
2023-04-02T13:14:26.651Z,13.02
2023-04-02T13:16:55.575Z,13.08
2023-04-02T13:19:29.119Z,13.09
2023-04-02T13:22:00.199Z,13.05
2023-04-02T13:24:33.213Z,13.10
2023-04-02T13:27:12.383Z,13.12
2023-04-02T13:29:41.633Z,13.14
2023-04-02T13:32:13.179Z,13.13
2023-04-02T13:34:41.215Z,13.18
2023-04-02T13:37:12.763Z,13.12
2023-04-02T13:39:40.947Z,13.16
2023-04-02T13:42:12.148Z,13.07
2023-04-02T13:44:43.043Z,13.04
2023-04-02T13:47:14.811Z,12.87
2023-04-02T13:49:42.632Z,12.91
2023-04-02T13:52:17.559Z,12.98
2023-04-02T13:54:51.417Z,12.95
2023-04-02T13:57:19.740Z,12.90
2023-04-02T13:59:47.857Z,12.83
2023-04-02T14:02:18.952Z,12.72
2023-04-02T14:04:51.411Z,12.63
2023-04-02T14:07:38.281Z,12.49
2023-04-02T14:10:42.965Z,12.43
2023-04-02T14:13:31.110Z,12.35
2023-04-02T14:16:34.706Z,12.41
2023-04-02T14:20:28.268Z,12.55
2023-04-02T14:24:27.200Z,12.65
2023-04-02T14:28:04.236Z,12.68
2023-04-02T14:32:04.169Z,12.55
2023-04-02T14:35:40.845Z,12.52
2023-04-02T14:39:31.219Z,12.63
2023-04-02T14:43:23.195Z,12.70
2023-04-02T14:46:36.206Z,12.98
2023-04-02T14:50:08.220Z,13.77
2023-04-02T14:53:54.282Z,14.35
2023-04-02T14:58:14.178Z,14.42
2023-04-02T15:01:54.270Z,14.34
2023-04-02T15:05:41.184Z,14.36
2023-04-02T15:09:36.200Z,14.52
2023-04-02T15:13:22.244Z,14.77
2023-04-02T15:17:07.211Z,15.00
2023-04-02T15:21:23.283Z,14.83
2023-04-02T15:29:28.857Z,14.16
2023-04-02T15:33:02.313Z,13.86
2023-04-02T15:36:36.315Z,13.74
2023-04-02T15:43:22.264Z,13.83
2023-04-02T15:46:58.181Z,14.07
2023-04-02T15:50:34.501Z,15.09
2023-04-02T15:54:04.160Z,16.19
2023-04-02T16:01:59.262Z,18.28
2023-04-02T16:13:10.398Z,16.73
2023-04-02T16:16:30.226Z,15.94
2023-04-02T16:20:10.203Z,15.18
2023-04-02T16:27:58.266Z,13.88
2023-04-02T16:31:56.236Z,13.25
2023-04-02T16:35:56.571Z,12.58
2023-04-02T16:39:16.411Z,12.16
2023-04-02T16:43:00.318Z,11.97
2023-04-02T16:46:59.373Z,11.75
2023-04-02T16:50:41.206Z,11.50
2023-04-02T16:54:28.241Z,11.34
2023-04-02T16:58:20.271Z,11.20
2023-04-02T17:01:52.230Z,11.05
2023-04-02T17:05:54.255Z,10.87
2023-04-02T17:09:46.582Z,10.69
2023-04-02T17:12:47.926Z,10.58
2023-04-02T17:15:37.492Z,10.51
2023-04-02T17:18:16.549Z,10.39
2023-04-02T17:20:44.778Z,10.34
2023-04-02T17:23:14.257Z,10.24
2023-04-02T17:25:57.345Z,10.20
2023-04-02T17:28:29.421Z,10.05
2023-04-02T17:31:00.417Z,9.96
2023-04-02T17:33:49.200Z,9.91
2023-04-02T17:37:40.291Z,9.84
2023-04-02T17:41:29.026Z,9.64
2023-04-02T17:49:21.317Z,9.29
2023-04-02T17:53:14.242Z,9.21
2023-04-02T17:56:43.289Z,9.19
2023-04-02T18:00:18.259Z,9.12
2023-04-02T18:04:08.193Z,9.02
2023-04-02T18:11:31.759Z,8.84
2023-04-02T18:15:30.538Z,8.79
2023-04-02T18:19:05.322Z,8.82
2023-04-02T18:30:47.320Z,8.76
2023-04-02T18:34:21.221Z,8.75
2023-04-02T18:38:13.265Z,8.72
2023-04-02T18:42:00.223Z,8.69
2023-04-02T18:45:52.317Z,8.65
2023-04-02T18:49:47.195Z,8.62
2023-04-02T18:53:42.266Z,8.60
2023-04-02T18:57:37.285Z,8.64
2023-04-02T19:01:12.359Z,8.64
2023-04-02T19:04:42.186Z,8.65
2023-04-02T19:08:20.211Z,8.66
2023-04-02T19:12:31.183Z,8.70
2023-04-02T19:20:18.639Z,8.75
2023-04-02T19:23:44.641Z,8.76
2023-04-02T19:27:24.342Z,8.74
2023-04-02T19:30:46.225Z,8.73
2023-04-02T19:34:26.297Z,8.71
2023-04-02T19:37:57.300Z,8.71
2023-04-02T19:41:14.519Z,8.70
2023-04-02T19:43:45.045Z,8.70
2023-04-02T19:46:13.128Z,8.72
2023-04-02T19:48:57.391Z,8.72
2023-04-02T19:51:26.426Z,8.72
2023-04-02T19:53:54.855Z,8.73
2023-04-02T19:56:23.238Z,8.74
2023-04-02T19:58:51.422Z,8.73
2023-04-02T20:01:19.886Z,8.71
2023-04-02T20:03:48.100Z,8.70
2023-04-02T20:06:16.259Z,8.69
2023-04-02T20:08:45.342Z,8.67
2023-04-02T20:11:13.775Z,8.68
2023-04-02T20:13:41.834Z,8.69
2023-04-02T20:16:10.104Z,8.69
2023-04-02T20:18:38.509Z,8.67
2023-04-02T20:21:08.036Z,8.65
2023-04-02T20:23:36.646Z,8.65
2023-04-02T20:26:05.679Z,8.64
2023-04-02T20:28:34.096Z,8.69
2023-04-02T20:31:18.868Z,8.75
2023-04-02T20:33:48.407Z,8.80
2023-04-02T20:36:17.871Z,8.82
2023-04-02T20:38:46.562Z,8.83
2023-04-02T20:41:16.290Z,8.83
2023-04-02T20:43:44.893Z,8.83
2023-04-02T20:46:14.076Z,8.81
2023-04-02T20:48:43.254Z,8.77
2023-04-02T20:51:16.773Z,8.71
2023-04-02T20:53:44.962Z,8.63
2023-04-02T20:56:15.997Z,8.57
2023-04-02T20:58:44.677Z,8.51
2023-04-02T21:01:20.558Z,8.43
2023-04-02T21:03:50.387Z,8.36
2023-04-02T21:06:21.379Z,8.30
2023-04-02T21:08:50.413Z,8.23
2023-04-02T21:11:19.276Z,8.17
2023-04-02T21:13:47.542Z,8.11
2023-04-02T21:16:22.331Z,8.08
2023-04-02T21:18:52.247Z,8.06
2023-04-02T21:21:22.840Z,8.03
2023-04-02T21:24:00.438Z,7.99
2023-04-02T21:26:34.837Z,7.94
2023-04-02T21:29:04.204Z,7.89
2023-04-02T21:31:37.242Z,7.85
2023-04-02T21:34:08.316Z,7.84
2023-04-02T21:36:39.893Z,7.86
2023-04-02T21:39:10.589Z,7.87
2023-04-02T21:41:41.762Z,7.87
2023-04-02T21:44:13.519Z,7.86
2023-04-02T21:46:42.816Z,7.85
2023-04-02T21:49:14.274Z,7.85
2023-04-02T21:51:44.340Z,7.82
2023-04-02T21:54:13.219Z,7.77
2023-04-02T21:56:43.443Z,7.72
2023-04-02T21:59:13.749Z,7.68
2023-04-02T22:01:46.114Z,7.66
2023-04-02T22:04:19.146Z,7.62
2023-04-02T22:06:47.954Z,7.57
2023-04-02T22:09:19.470Z,7.50
2023-04-02T22:11:50.834Z,7.45
2023-04-02T22:14:18.767Z,7.39
2023-04-02T22:16:46.795Z,7.34
2023-04-02T22:19:16.838Z,7.30
2023-04-02T22:21:46.203Z,7.25
2023-04-02T22:24:18.928Z,7.19
2023-04-02T22:26:47.360Z,7.13
2023-04-02T22:29:15.740Z,7.08
2023-04-02T22:31:44.533Z,7.05
2023-04-02T22:34:12.916Z,7.03
2023-04-02T22:36:41.265Z,7.01
2023-04-02T22:39:18.684Z,6.98
2023-04-02T22:41:46.876Z,6.95
2023-04-02T22:44:15.856Z,6.94
2023-04-02T22:47:18.267Z,6.96
2023-04-02T22:50:56.163Z,6.96
2023-04-02T22:54:42.307Z,6.94
2023-04-02T22:58:13.318Z,6.89
2023-04-02T23:01:47.278Z,6.85
2023-04-02T23:05:20.268Z,6.81
2023-04-02T23:08:53.272Z,6.80
2023-04-02T23:12:14.216Z,6.76
2023-04-02T23:15:35.334Z,6.72
2023-04-02T23:19:18.721Z,6.65
2023-04-02T23:22:40.607Z,6.61
2023-04-02T23:25:50.246Z,6.59
2023-04-02T23:29:27.236Z,6.58
2023-04-02T23:33:04.555Z,6.58
2023-04-02T23:36:37.471Z,6.59
2023-04-02T23:40:09.228Z,6.58
2023-04-02T23:43:50.231Z,6.57
2023-04-02T23:47:27.350Z,6.55
2023-04-02T23:50:58.195Z,6.52
2023-04-02T23:57:42.260Z,6.46
